Time,TemperatureF,DewpointF,PressureIn,WindDirection,WindDirectionDegrees,WindSpeedMPH,WindSpeedGustMPH,Humidity,HourlyPrecipIn,Conditions,Clouds,dailyrainin,SoftwareType,DateUTC
2013-09-03 00:08:00,69.9,68.0,29.76,SSW,192,0.0,-999.0,94,-99.99,,,0.00,weatherlink.com 1.10,2013-09-03 04:08:00,
2013-09-03 00:23:00,69.8,68.0,29.75,SSW,192,0.0,-999.0,95,-99.99,,,0.00,weatherlink.com 1.10,2013-09-03 04:23:00,
2013-09-03 00:38:00,69.6,68.0,29.77,SSW,192,0.0,-999.0,95,-99.99,,,0.00,weatherlink.com 1.10,2013-09-03 04:38:00,
2013-09-03 00:53:00,69.3,68.0,29.78,SSW,192,0.0,-999.0,95,-99.99,,,0.00,weatherlink.com 1.10,2013-09-03 04:53:00,
2013-09-03 01:08:00,69.2,68.0,29.78,SSW,192,0.0,-999.0,95,-99.99,,,0.00,weatherlink.com 1.10,2013-09-03 05:08:00,
2013-09-03 01:23:00,68.8,67.0,29.79,SSW,192,0.0,-999.0,95,-99.99,,,0.00,weatherlink.com 1.10,2013-09-03 05:23:00,
2013-09-03 01:38:00,68.6,67.0,29.79,SSW,192,0.0,-999.0,95,-99.99,,,0.00,weatherlink.com 1.10,2013-09-03 05:38:00,
2013-09-03 01:53:00,68.4,67.0,29.79,SSW,192,0.0,-999.0,95,-99.99,,,0.00,weatherlink.com 1.10,2013-09-03 05:53:00,
2013-09-03 02:08:00,68.3,67.0,29.79,SSW,192,0.0,-999.0,96,-99.99,,,0.00,weatherlink.com 1.10,2013-09-03 06:08:00,
2013-09-03 02:23:00,68.3,67.0,29.78,SSW,192,0.0,-999.0,96,-99.99,,,0.00,weatherlink.com 1.10,2013-09-03 06:23:00,
2013-09-03 02:38:00,68.3,67.0,29.76,SSW,192,1.0,-999.0,96,-99.99,,,0.00,weatherlink.com 1.10,2013-09-03 06:38:00,
2013-09-03 02:53:00,68.3,67.0,29.77,SSW,192,0.0,-999.0,96,-99.99,,,0.00,weatherlink.com 1.10,2013-09-03 06:53:00,
2013-09-03 03:08:00,68.2,67.0,29.77,SSW,192,0.0,-999.0,96,-99.99,,,0.00,weatherlink.com 1.10,2013-09-03 07:08:00,
2013-09-03 03:23:00,68.1,67.0,29.79,SSW,192,0.0,-999.0,96,-99.99,,,0.00,weatherlink.com 1.10,2013-09-03 07:23:00,
2013-09-03 03:38:00,68.0,67.0,29.78,SSW,192,0.0,-999.0,96,-99.99,,,0.00,weatherlink.com 1.10,2013-09-03 07:38:00,
2013-09-03 03:53:00,67.7,67.0,29.77,SSW,192,0.0,-999.0,96,-99.99,,,0.00,weatherlink.com 1.10,2013-09-03 07:53:00,
2013-09-03 04:08:00,67.2,66.0,29.76,SSW,192,0.0,-999.0,95,-99.99,,,0.00,weatherlink.com 1.10,2013-09-03 08:08:00,
2013-09-03 04:23:00,66.9,66.0,29.77,SSW,192,0.0,-999.0,96,-99.99,,,0.00,weatherlink.com 1.10,2013-09-03 08:23:00,
2013-09-03 04:38:00,66.6,66.0,29.78,SSW,192,0.0,-999.0,96,-99.99,,,0.00,weatherlink.com 1.10,2013-09-03 08:38:00,
2013-09-03 04:53:00,66.5,65.0,29.80,SSW,192,0.0,-999.0,96,-99.99,,,0.00,weatherlink.com 1.10,2013-09-03 08:53:00,
2013-09-03 05:08:00,66.4,65.0,29.80,SSW,192,0.0,-999.0,96,-99.99,,,0.00,weatherlink.com 1.10,2013-09-03 09:08:00,
2013-09-03 05:23:00,65.9,65.0,29.81,SSW,192,0.0,-999.0,96,-99.99,,,0.00,weatherlink.com 1.10,2013-09-03 09:23:00,
2013-09-03 05:38:00,65.8,65.0,29.82,SSW,192,0.0,-999.0,96,-99.99,,,0.00,weatherlink.com 1.10,2013-09-03 09:38:00,
2013-09-03 05:53:00,66.0,65.0,29.81,SSW,192,0.0,-999.0,96,-99.99,,,0.00,weatherlink.com 1.10,2013-09-03 09:53:00,
2013-09-03 06:08:00,65.9,65.0,29.81,SSW,192,0.0,-999.0,96,-99.99,,,0.00,weatherlink.com 1.10,2013-09-03 10:08:00,
2013-09-03 06:23:00,65.8,65.0,29.82,SSW,192,0.0,-999.0,97,-99.99,,,0.00,weatherlink.com 1.10,2013-09-03 10:23:00,
2013-09-03 06:38:00,65.9,65.0,29.82,SSW,192,0.0,-999.0,97,-99.99,,,0.00,weatherlink.com 1.10,2013-09-03 10:38:00,
2013-09-03 06:53:00,65.9,65.0,29.82,SSW,192,0.0,-999.0,97,-99.99,,,0.00,weatherlink.com 1.10,2013-09-03 10:53:00,
2013-09-03 07:08:00,66.0,65.0,29.83,SSW,192,0.0,-999.0,97,-99.99,,,0.00,weatherlink.com 1.10,2013-09-03 11:08:00,
2013-09-03 07:23:00,66.1,65.0,29.84,SSW,192,0.0,-999.0,97,-99.99,,,0.00,weatherlink.com 1.10,2013-09-03 11:23:00,
2013-09-03 07:38:00,66.2,65.0,29.84,SSW,192,0.0,-999.0,97,-99.99,,,0.00,weatherlink.com 1.10,2013-09-03 11:38:00,
2013-09-03 07:53:00,66.8,66.0,29.85,SSW,192,0.0,-999.0,97,-99.99,,,0.00,weatherlink.com 1.10,2013-09-03 11:53:00,
2013-09-03 08:08:00,67.9,67.0,29.85,SSW,192,0.0,-999.0,97,-99.99,,,0.00,weatherlink.com 1.10,2013-09-03 12:08:00,
2013-09-03 08:23:00,69.0,68.0,29.85,SSW,192,0.0,-999.0,97,-99.99,,,0.00,weatherlink.com 1.10,2013-09-03 12:23:00,
2013-09-03 08:38:00,69.3,68.0,29.86,SSW,192,0.0,-999.0,96,-99.99,,,0.00,weatherlink.com 1.10,2013-09-03 12:38:00,
2013-09-03 08:53:00,69.5,68.0,29.85,SSW,192,0.0,-999.0,95,-99.99,,,0.00,weatherlink.com 1.10,2013-09-03 12:53:00,
2013-09-03 09:08:00,70.9,69.0,29.86,SSW,192,0.0,-999.0,94,-99.99,,,0.00,weatherlink.com 1.10,2013-09-03 13:08:00,
2013-09-03 09:23:00,72.2,70.0,29.86,SSW,192,0.0,-999.0,91,-99.99,,,0.00,weatherlink.com 1.10,2013-09-03 13:23:00,
2013-09-03 09:38:00,73.7,68.0,29.86,SSW,192,0.0,-999.0,83,-99.99,,,0.00,weatherlink.com 1.10,2013-09-03 13:38:00,
2013-09-03 09:53:00,75.3,66.0,29.87,WNW,291,0.0,-999.0,73,-99.99,,,0.00,weatherlink.com 1.10,2013-09-03 13:53:00,
2013-09-03 10:08:00,76.4,66.0,29.87,NW,311,0.0,-999.0,69,-99.99,,,0.00,weatherlink.com 1.10,2013-09-03 14:08:00,
2013-09-03 10:23:00,76.7,65.0,29.87,NNE,25,2.0,-999.0,68,-99.99,,,0.00,weatherlink.com 1.10,2013-09-03 14:23:00,
2013-09-03 10:38:00,77.2,65.0,29.87,NNE,18,2.0,-999.0,67,-99.99,,,0.00,weatherlink.com 1.10,2013-09-03 14:38:00,
2013-09-03 10:53:00,77.0,65.0,29.87,North,351,0.0,-999.0,67,-99.99,,,0.00,weatherlink.com 1.10,2013-09-03 14:53:00,
2013-09-03 11:08:00,77.9,66.0,29.87,North,355,0.0,-999.0,66,-99.99,,,0.00,weatherlink.com 1.10,2013-09-03 15:08:00,
2013-09-03 11:23:00,77.9,64.0,29.87,North,355,2.0,-999.0,62,-99.99,,,0.00,weatherlink.com 1.10,2013-09-03 15:23:00,
2013-09-03 11:38:00,78.3,66.0,29.87,North,355,0.0,-999.0,65,-99.99,,,0.00,weatherlink.com 1.10,2013-09-03 15:38:00,
2013-09-03 11:53:00,78.3,65.0,29.87,WNW,296,5.0,-999.0,64,-99.99,,,0.00,weatherlink.com 1.10,2013-09-03 15:53:00,
2013-09-03 12:08:00,79.3,64.0,29.87,NW,309,4.0,-999.0,60,-99.99,,,0.00,weatherlink.com 1.10,2013-09-03 16:08:00,
2013-09-03 12:23:00,79.0,64.0,29.86,NNW,329,1.0,-999.0,61,-99.99,,,0.00,weatherlink.com 1.10,2013-09-03 16:23:00,
2013-09-03 12:38:00,78.9,64.0,29.86,NW,309,2.0,-999.0,61,-99.99,,,0.00,weatherlink.com 1.10,2013-09-03 16:38:00,
2013-09-03 12:53:00,80.5,65.0,29.86,WNW,296,0.0,-999.0,60,-99.99,,,0.00,weatherlink.com 1.10,2013-09-03 16:53:00,
2013-09-03 13:08:00,80.9,65.0,29.86,North,360,3.0,-999.0,59,-99.99,,,0.00,weatherlink.com 1.10,2013-09-03 17:08:00,
2013-09-03 13:23:00,80.8,65.0,29.85,North,5,1.0,-999.0,59,-99.99,,,0.00,weatherlink.com 1.10,2013-09-03 17:23:00,
2013-09-03 13:38:00,81.4,65.0,29.86,West,277,7.0,-999.0,57,-99.99,,,0.00,weatherlink.com 1.10,2013-09-03 17:38:00,
2013-09-03 13:53:00,81.9,65.0,29.85,West,275,7.0,-999.0,57,-99.99,,,0.00,weatherlink.com 1.10,2013-09-03 17:53:00,
2013-09-03 14:08:00,82.0,64.0,29.85,NW,322,4.0,-999.0,55,-99.99,,,0.00,weatherlink.com 1.10,2013-09-03 18:08:00,
2013-09-03 14:23:00,82.4,64.0,29.84,NW,309,8.0,-999.0,54,-99.99,,,0.00,weatherlink.com 1.10,2013-09-03 18:23:00,
2013-09-03 14:38:00,82.6,63.0,29.84,West,279,6.0,-999.0,52,-99.99,,,0.00,weatherlink.com 1.10,2013-09-03 18:38:00,
2013-09-03 14:53:00,83.1,65.0,29.84,NW,321,7.0,-999.0,55,-99.99,,,0.00,weatherlink.com 1.10,2013-09-03 18:53:00,
2013-09-03 15:08:00,83.3,64.0,29.84,NNE,29,6.0,-999.0,53,-99.99,,,0.00,weatherlink.com 1.10,2013-09-03 19:08:00,
2013-09-03 15:23:00,83.4,63.0,29.83,NW,313,5.0,-999.0,51,-99.99,,,0.00,weatherlink.com 1.10,2013-09-03 19:23:00,
2013-09-03 15:38:00,83.3,65.0,29.83,North,5,4.0,-999.0,55,-99.99,,,0.00,weatherlink.com 1.10,2013-09-03 19:38:00,
2013-09-03 15:53:00,83.5,65.0,29.83,NW,321,4.0,-999.0,54,-99.99,,,0.00,weatherlink.com 1.10,2013-09-03 19:53:00,
2013-09-03 16:08:00,83.8,65.0,29.82,NNW,340,5.0,-999.0,53,-99.99,,,0.00,weatherlink.com 1.10,2013-09-03 20:08:00,
2013-09-03 16:22:00,83.9,62.0,29.83,NNW,329,4.0,-999.0,47,-99.99,,,0.00,weatherlink.com 1.10,2013-09-03 20:22:00,
2013-09-03 16:37:00,83.7,64.0,29.83,NE,42,3.0,-999.0,52,-99.99,,,0.00,weatherlink.com 1.10,2013-09-03 20:37:00,
2013-09-03 16:52:00,83.8,64.0,29.83,NW,319,1.0,-999.0,52,-99.99,,,0.00,weatherlink.com 1.10,2013-09-03 20:52:00,
2013-09-03 17:07:00,83.3,63.0,29.83,NW,319,5.0,-999.0,51,-99.99,,,0.00,weatherlink.com 1.10,2013-09-03 21:07:00,
2013-09-03 17:22:00,82.7,63.0,29.84,NNW,327,2.0,-999.0,52,-99.99,,,0.00,weatherlink.com 1.10,2013-09-03 21:22:00,
2013-09-03 17:37:00,82.7,62.0,29.84,NNW,335,8.0,-999.0,50,-99.99,,,0.00,weatherlink.com 1.10,2013-09-03 21:37:00,
2013-09-03 17:52:00,82.3,61.0,29.85,NNW,329,0.0,-999.0,49,-99.99,,,0.00,weatherlink.com 1.10,2013-09-03 21:52:00,
2013-09-03 18:07:00,82.0,63.0,29.85,NNW,342,2.0,-999.0,53,-99.99,,,0.00,weatherlink.com 1.10,2013-09-03 22:07:00,
2013-09-03 18:22:00,81.6,63.0,29.86,North,360,3.0,-999.0,54,-99.99,,,0.00,weatherlink.com 1.10,2013-09-03 22:22:00,
2013-09-03 18:37:00,80.6,63.0,29.86,North,5,3.0,-999.0,55,-99.99,,,0.00,weatherlink.com 1.10,2013-09-03 22:37:00,
2013-09-03 18:52:00,80.1,63.0,29.87,North,5,0.0,-999.0,56,-99.99,,,0.00,weatherlink.com 1.10,2013-09-03 22:52:00,
2013-09-03 19:07:00,79.3,63.0,29.88,North,350,0.0,-999.0,57,-99.99,,,0.00,weatherlink.com 1.10,2013-09-03 23:07:00,
2013-09-03 19:22:00,77.7,63.0,29.89,North,5,0.0,-999.0,60,-99.99,,,0.00,weatherlink.com 1.10,2013-09-03 23:22:00,
2013-09-03 19:37:00,75.4,62.0,29.90,North,5,0.0,-999.0,64,-99.99,,,0.00,weatherlink.com 1.10,2013-09-03 23:37:00,
2013-09-03 19:52:00,73.1,62.0,29.90,North,5,1.0,-999.0,68,-99.99,,,0.00,weatherlink.com 1.10,2013-09-03 23:52:00,
2013-09-03 20:07:00,71.1,61.0,29.91,North,5,0.0,-999.0,70,-99.99,,,0.00,weatherlink.com 1.10,2013-09-04 00:07:00,
2013-09-03 20:23:00,69.2,59.0,29.93,North,5,0.0,-999.0,71,-99.99,,,0.00,weatherlink.com 1.10,2013-09-04 00:23:00,
2013-09-03 20:37:00,68.6,59.0,29.93,NNE,17,0.0,-999.0,71,-99.99,,,0.00,weatherlink.com 1.10,2013-09-04 00:37:00,
2013-09-03 20:52:00,68.3,59.0,29.93,NNE,29,1.0,-999.0,71,-99.99,,,0.00,weatherlink.com 1.10,2013-09-04 00:52:00,
2013-09-03 21:07:00,68.2,58.0,29.94,North,5,0.0,-999.0,70,-99.99,,,0.00,weatherlink.com 1.10,2013-09-04 01:07:00,
2013-09-03 21:23:00,67.8,58.0,29.95,North,5,0.0,-999.0,70,-99.99,,,0.00,weatherlink.com 1.10,2013-09-04 01:23:00,
2013-09-03 21:37:00,67.0,59.0,29.95,North,5,0.0,-999.0,76,-99.99,,,0.00,weatherlink.com 1.10,2013-09-04 01:37:00,
2013-09-03 21:52:00,65.7,58.0,29.95,North,5,0.0,-999.0,77,-99.99,,,0.00,weatherlink.com 1.10,2013-09-04 01:52:00,
2013-09-03 22:07:00,64.5,58.0,29.96,North,5,0.0,-999.0,80,-99.99,,,0.00,weatherlink.com 1.10,2013-09-04 02:07:00,
2013-09-03 22:22:00,63.5,58.0,29.96,NNE,15,0.0,-999.0,83,-99.99,,,0.00,weatherlink.com 1.10,2013-09-04 02:22:00,
2013-09-03 22:37:00,62.9,58.0,29.97,NNE,15,0.0,-999.0,85,-99.99,,,0.00,weatherlink.com 1.10,2013-09-04 02:37:00,
2013-09-03 22:53:00,61.7,58.0,29.97,NNE,15,0.0,-999.0,87,-99.99,,,0.00,weatherlink.com 1.10,2013-09-04 02:53:00,
2013-09-03 23:07:00,61.2,58.0,29.97,NNE,15,0.0,-999.0,88,-99.99,,,0.00,weatherlink.com 1.10,2013-09-04 03:07:00,
2013-09-03 23:23:00,60.4,57.0,29.98,NNE,15,0.0,-999.0,89,-99.99,,,0.00,weatherlink.com 1.10,2013-09-04 03:23:00,
2013-09-03 23:38:00,60.0,57.0,29.99,NNE,15,0.0,-999.0,91,-99.99,,,0.00,weatherlink.com 1.10,2013-09-04 03:38:00,
2013-09-03 23:53:00,59.8,57.0,29.99,NNE,15,0.0,-999.0,91,-99.99,,,0.00,weatherlink.com 1.10,2013-09-04 03:53:00,